Terminal Aerodrome Forecast
Issued by NWS

Home | Current Version | Previous Version | Text Only | Print | Product List | Glossary Off
Versions: 1 2 3 4 5 6 7 8 9 10 11 12 13

000
FTUS43 KICT 140523
TAFRSL
TAF
KRSL 140523Z 1406/1506 33007KT P6SM BKN250
     FM141700 32011KT P6SM BKN100
     FM150200 33012KT P6SM SCT130=

USA.gov is the U.S. government's official web portal to all federal, state and local government web resources and services.